Aviation Digital Data Service (ADDS)

Output produced by TAFs form (0108 UTC 21 October 2017)
found at http://www.aviationweather.gov/adds/tafs/
 
KSAV 210053Z 00000KT 10SM CLR 20/17 A3020 RMK AO2 SLP225 T02000172
KSAV 202323Z 2100/2124 VRB03KT P6SM SKC 
     FM211400 04005KT P6SM FEW200 
     FM211800 10008KT P6SM SCT040